Time;durP1;ratioP1;P1;durP2;ratioP2;P2;SDS_P1;SDS_P2;PMS_P1;PMS_P2;Temp;Humidity;BMP_temperature;BMP_pressure;BME280_temperature;BME280_humidity;BME280_pressure;Samples;Min_cycle;Max_cycle;Signal;HPM_P1;HPM_P2
2022/09/18 00:02:30;;;;;;;2.60;0.57;;;9.00;1.00;;;;;;8361463;28;20212;-68
2022/09/18 00:06:34;;;;;;;2.57;0.90;;;9.00;1.00;;;;;;8359461;28;20193;-68
2022/09/18 00:10:43;;;;;;;2.83;0.70;;;9.00;1.00;;;;;;8367456;28;20177;-67
2022/09/18 00:14:44;;;;;;;3.07;0.63;;;9.00;34.90;;;;;;8372080;28;20247;-67
2022/09/18 00:18:45;;;;;;;1.13;0.60;;;9.00;22.60;;;;;;8364674;28;20204;-67
2022/09/18 00:22:46;;;;;;;0.60;0.50;;;9.00;97.40;;;;;;8365081;28;20207;-67
2022/09/18 00:26:48;;;;;;;0.87;0.53;;;9.00;99.90;;;;;;8365458;28;20177;-67
2022/09/18 00:30:48;;;;;;;0.80;0.40;;;9.10;92.30;;;;;;8364490;28;20193;-67
2022/09/18 00:34:49;;;;;;;1.60;0.40;;;9.10;89.70;;;;;;8365776;28;20191;-67
2022/09/18 00:38:51;;;;;;;0.93;0.40;;;9.10;81.60;;;;;;8366927;28;20221;-68
2022/09/18 00:42:52;;;;;;;2.10;0.50;;;9.20;1.00;;;;;;8366622;28;20240;-68
2022/09/18 00:46:52;;;;;;;1.00;0.50;;;9.10;1.00;;;;;;8360666;28;20185;-66
2022/09/18 00:50:53;;;;;;;0.40;0.30;;;9.10;20.80;;;;;;8363312;28;20308;-67
2022/09/18 00:55:07;;;;;;;0.40;0.30;;;9.10;23.80;;;;;;8370734;28;20190;-68
2022/09/18 00:59:11;;;;;;;0.80;0.40;;;9.20;23.50;;;;;;8362670;28;20187;-68
2022/09/18 01:03:12;;;;;;;0.80;0.30;;;9.20;18.40;;;;;;8369642;28;20272;-67
2022/09/18 01:07:34;;;;;;;0.90;0.50;;;9.20;13.10;;;;;;8360195;28;20184;-68
2022/09/18 01:11:39;;;;;;;1.00;0.50;;;9.20;1.00;;;;;;8369112;28;20197;-68
2022/09/18 01:15:56;;;;;;;1.17;0.50;;;9.30;25.00;;;;;;8364107;28;20189;-68
2022/09/18 01:20:13;;;;;;;2.30;0.50;;;9.20;22.30;;;;;;8369313;28;20205;-68
2022/09/18 01:24:49;;;;;;;0.60;0.50;;;9.20;99.90;;;;;;8361612;28;20534;-67
2022/09/18 01:28:55;;;;;;;0.97;0.60;;;9.20;99.90;;;;;;8364422;28;20181;-68
2022/09/18 01:33:04;;;;;;;0.93;0.50;;;9.20;99.90;;;;;;8364092;28;20185;-67
2022/09/18 01:37:16;;;;;;;1.93;0.67;;;9.20;99.90;;;;;;8382346;28;20200;-67
2022/09/18 01:41:24;;;;;;;0.90;0.80;;;9.20;1.00;;;;;;8364900;28;20182;-68
2022/09/18 01:45:31;;;;;;;1.70;0.83;;;9.20;11.50;;;;;;8364193;28;20205;-68
2022/09/18 01:49:38;;;;;;;0.60;0.57;;;9.10;1.00;;;;;;8360461;28;20174;-68
2022/09/18 01:53:43;;;;;;;1.30;0.80;;;9.10;99.90;;;;;;8363494;28;20188;-67
2022/09/18 01:57:56;;;;;;;0.93;0.70;;;9.00;99.90;;;;;;8366636;28;20240;-67
2022/09/18 02:02:02;;;;;;;3.87;0.70;;;9.00;99.90;;;;;;8373028;28;20196;-68
2022/09/18 02:06:09;;;;;;;1.83;0.70;;;9.00;99.90;;;;;;8370572;28;20223;-68
2022/09/18 02:10:09;;;;;;;0.80;0.80;;;8.90;99.90;;;;;;8370189;28;20182;-67
2022/09/18 02:14:19;;;;;;;0.90;0.80;;;8.80;99.90;;;;;;8369100;28;20213;-68
2022/09/18 02:18:28;;;;;;;1.27;0.83;;;8.80;99.90;;;;;;8373252;28;20212;-68
2022/09/18 02:22:33;;;;;;;0.90;0.80;;;8.80;99.90;;;;;;8375074;28;20205;-68
2022/09/18 02:26:37;;;;;;;1.10;0.70;;;8.80;99.90;;;;;;8378515;28;20176;-69
2022/09/18 02:30:38;;;;;;;2.37;0.67;;;8.80;99.90;;;;;;8374575;28;20185;-67
2022/09/18 02:34:39;;;;;;;0.73;0.73;;;8.80;99.90;;;;;;8366504;28;20195;-69
2022/09/18 02:39:06;;;;;;;1.17;0.90;;;8.90;99.90;;;;;;8367768;28;20189;-68
2022/09/18 02:43:16;;;;;;;1.17;0.90;;;8.90;99.90;;;;;;8367401;28;20213;-68
2022/09/18 02:47:35;;;;;;;1.23;1.13;;;8.90;99.90;;;;;;8368581;28;20223;-68
2022/09/18 02:52:19;;;;;;;1.40;1.00;;;8.90;99.90;;;;;;8364221;28;20181;-68
2022/09/18 02:56:32;;;;;;;1.23;0.90;;;8.90;99.90;;;;;;8347961;28;20189;-68
2022/09/18 03:00:34;;;;;;;1.30;1.00;;;8.90;99.90;;;;;;8368119;28;20178;-69
2022/09/18 03:04:35;;;;;;;1.23;1.00;;;8.90;99.90;;;;;;8369164;28;20218;-67
2022/09/18 03:08:36;;;;;;;3.13;1.20;;;9.00;99.90;;;;;;8367191;28;20181;-68
2022/09/18 03:12:37;;;;;;;3.93;1.67;;;9.00;99.90;;;;;;8366342;28;20197;-67
2022/09/18 03:16:38;;;;;;;2.77;1.30;;;9.00;99.90;;;;;;8367216;28;20173;-66
2022/09/18 03:20:41;;;;;;;1.53;1.27;;;8.90;99.90;;;;;;8371134;28;20216;-66
2022/09/18 03:24:42;;;;;;;1.40;1.27;;;8.90;99.90;;;;;;8369335;28;20213;-67
2022/09/18 03:28:43;;;;;;;2.13;1.30;;;8.90;99.90;;;;;;8364309;28;20182;-67
2022/09/18 03:32:44;;;;;;;1.50;1.40;;;8.90;99.90;;;;;;8366141;28;20450;-68
2022/09/18 03:36:45;;;;;;;2.33;2.10;;;8.90;99.90;;;;;;8363606;28;20205;-67
2022/09/18 03:40:46;;;;;;;2.80;1.83;;;8.90;99.90;;;;;;8366986;28;20215;-67
2022/09/18 03:44:47;;;;;;;1.93;1.80;;;8.90;99.90;;;;;;8368545;28;20215;-68
2022/09/18 03:48:52;;;;;;;2.30;2.10;;;8.90;99.90;;;;;;8364424;28;20250;-68
2022/09/18 03:52:52;;;;;;;3.63;2.40;;;8.90;99.90;;;;;;8374721;28;20196;-67
2022/09/18 03:56:53;;;;;;;3.33;2.77;;;8.90;99.90;;;;;;8365165;28;20186;-67
2022/09/18 04:00:54;;;;;;;2.60;2.40;;;8.90;99.90;;;;;;8363850;28;20197;-68
2022/09/18 04:04:55;;;;;;;4.13;2.80;;;8.90;99.90;;;;;;8368661;28;20270;-68
2022/09/18 04:08:56;;;;;;;6.03;2.40;;;8.90;99.90;;;;;;8365314;28;20188;-67
2022/09/18 04:12:57;;;;;;;4.60;2.80;;;8.90;99.90;;;;;;8365674;28;20205;-68
2022/09/18 04:17:00;;;;;;;3.23;2.83;;;8.90;99.90;;;;;;8363580;28;20193;-66
2022/09/18 04:21:03;;;;;;;3.77;2.70;;;9.00;99.90;;;;;;8365439;28;20196;-67
2022/09/18 04:25:04;;;;;;;3.27;2.70;;;9.00;99.90;;;;;;8365577;28;20292;-67
2022/09/18 04:29:06;;;;;;;3.47;2.40;;;9.00;99.90;;;;;;8363511;28;20182;-68
2022/09/18 04:33:07;;;;;;;3.00;2.07;;;9.00;99.90;;;;;;8365446;28;20190;-68
2022/09/18 04:37:11;;;;;;;4.90;2.20;;;9.10;99.90;;;;;;8366259;28;20182;-67
2022/09/18 04:41:12;;;;;;;1.90;1.70;;;9.10;99.90;;;;;;8370512;28;20268;-67
2022/09/18 04:45:13;;;;;;;3.33;1.70;;;9.10;99.90;;;;;;8363842;28;20269;-68
2022/09/18 04:49:14;;;;;;;1.73;1.63;;;9.10;99.90;;;;;;8363512;28;20489;-69
2022/09/18 04:53:15;;;;;;;1.60;1.50;;;9.20;99.90;;;;;;8362208;28;20192;-68
2022/09/18 04:57:19;;;;;;;2.00;1.77;;;9.20;99.90;;;;;;8364178;28;20177;-68
2022/09/18 05:01:20;;;;;;;1.60;1.50;;;9.20;99.90;;;;;;8363204;28;20193;-69
2022/09/18 05:05:23;;;;;;;2.90;1.90;;;9.30;99.90;;;;;;8366200;28;20209;-68
2022/09/18 05:09:24;;;;;;;1.70;1.60;;;9.30;99.90;;;;;;8365795;28;20202;-68
2022/09/18 05:13:25;;;;;;;1.83;1.13;;;9.40;99.90;;;;;;8363326;28;20198;-68
2022/09/18 05:17:26;;;;;;;1.00;1.00;;;9.40;99.90;;;;;;8366837;28;20198;-68
2022/09/18 05:21:27;;;;;;;0.90;0.90;;;9.50;99.90;;;;;;8364857;28;20186;-68
2022/09/18 05:25:31;;;;;;;1.87;0.90;;;9.60;99.90;;;;;;8369728;28;20210;-67
2022/09/18 05:29:31;;;;;;;0.83;0.83;;;9.60;99.90;;;;;;8367087;28;20182;-68
2022/09/18 05:33:42;;;;;;;0.97;0.87;;;9.70;99.90;;;;;;8376884;28;20182;-69
2022/09/18 05:37:43;;;;;;;0.87;0.60;;;9.80;99.90;;;;;;8369690;28;20195;-67
2022/09/18 05:41:47;;;;;;;0.47;0.47;;;9.80;99.90;;;;;;8371457;28;20217;-68
2022/09/18 05:45:50;;;;;;;0.83;0.50;;;9.70;99.90;;;;;;8369303;28;20325;-68
2022/09/18 05:49:51;;;;;;;0.53;0.40;;;9.80;99.90;;;;;;8373137;28;20183;-67
2022/09/18 05:53:54;;;;;;;0.63;0.47;;;9.90;99.90;;;;;;8372347;28;20292;-66
2022/09/18 05:57:57;;;;;;;0.53;0.47;;;10.00;99.90;;;;;;8370863;28;20218;-68
2022/09/18 06:01:57;;;;;;;2.37;0.33;;;10.10;99.90;;;;;;8368419;28;20606;-68
2022/09/18 06:05:58;;;;;;;3.10;0.40;;;10.10;99.90;;;;;;8375876;28;20345;-67
2022/09/18 06:09:59;;;;;;;0.50;0.40;;;10.00;99.90;;;;;;8369899;28;20190;-68
2022/09/18 06:14:00;;;;;;;0.40;0.40;;;9.90;99.90;;;;;;8368173;28;20218;-66
2022/09/18 06:18:08;;;;;;;0.93;0.50;;;9.70;99.90;;;;;;8373298;28;20586;-66
2022/09/18 06:22:08;;;;;;;0.60;0.60;;;9.60;99.90;;;;;;8363983;28;20189;-66
2022/09/18 06:26:10;;;;;;;0.70;0.47;;;9.50;99.90;;;;;;8367302;28;20244;-67
2022/09/18 06:30:12;;;;;;;1.40;0.70;;;9.50;99.90;;;;;;8363021;28;20182;-66
2022/09/18 06:34:13;;;;;;;1.57;0.80;;;9.50;99.90;;;;;;8370128;28;20189;-66
2022/09/18 06:38:14;;;;;;;1.40;0.67;;;9.50;99.90;;;;;;8367918;28;20279;-67
2022/09/18 06:42:16;;;;;;;1.83;0.60;;;9.50;99.90;;;;;;8365976;28;20212;-68
2022/09/18 06:46:17;;;;;;;1.07;0.70;;;9.40;99.90;;;;;;8371819;28;20213;-65
2022/09/18 06:50:17;;;;;;;0.83;0.50;;;9.40;99.90;;;;;;8371822;28;20208;-67
2022/09/18 06:54:18;;;;;;;0.87;0.60;;;9.40;99.90;;;;;;8367861;28;20208;-68
2022/09/18 06:58:20;;;;;;;2.13;0.60;;;9.40;99.90;;;;;;8368583;28;20260;-66
2022/09/18 07:02:24;;;;;;;1.43;0.80;;;9.40;99.90;;;;;;8366734;28;20190;-67
2022/09/18 07:06:25;;;;;;;0.70;0.57;;;9.50;99.90;;;;;;8365897;28;20200;-66
2022/09/18 07:10:26;;;;;;;2.93;0.70;;;9.50;99.90;;;;;;8365109;28;20204;-65
2022/09/18 07:14:27;;;;;;;2.50;0.67;;;9.40;99.90;;;;;;8366249;28;20498;-66
2022/09/18 07:18:28;;;;;;;2.77;1.03;;;9.40;99.90;;;;;;8366928;28;20224;-65
2022/09/18 07:22:29;;;;;;;1.10;0.73;;;9.30;99.90;;;;;;8363319;28;20206;-66
2022/09/18 07:26:30;;;;;;;1.33;1.07;;;9.30;99.90;;;;;;8367869;28;20193;-67
2022/09/18 07:30:31;;;;;;;3.23;1.20;;;9.30;99.90;;;;;;8367889;28;20216;-67
2022/09/18 07:34:32;;;;;;;2.07;1.40;;;9.30;99.90;;;;;;8369665;28;20251;-65
2022/09/18 07:38:53;;;;;;;3.93;1.77;;;9.30;99.90;;;;;;8363752;28;20189;-67
2022/09/18 07:42:59;;;;;;;3.40;1.53;;;9.40;99.90;;;;;;8362285;28;20224;-67
2022/09/18 07:47:00;;;;;;;3.80;1.77;;;9.40;99.90;;;;;;8369551;28;20189;-66
2022/09/18 07:51:02;;;;;;;3.27;1.53;;;9.30;99.90;;;;;;8364145;28;20186;-67
2022/09/18 07:55:03;;;;;;;6.63;1.83;;;9.40;99.90;;;;;;8367293;28;20246;-68
2022/09/18 07:59:07;;;;;;;3.47;1.60;;;9.40;99.90;;;;;;8367099;28;20186;-68
2022/09/18 08:03:12;;;;;;;3.90;1.50;;;9.40;99.90;;;;;;8364550;28;20205;-67
2022/09/18 08:07:13;;;;;;;8.00;2.23;;;9.40;99.90;;;;;;8366467;28;20275;-66
2022/09/18 08:11:14;;;;;;;7.13;2.43;;;9.40;99.90;;;;;;8367868;28;20212;-66
2022/09/18 08:15:15;;;;;;;5.50;2.17;;;9.60;99.90;;;;;;8363970;28;20182;-66
2022/09/18 08:19:16;;;;;;;11.27;2.40;;;9.70;99.90;;;;;;8366426;28;20296;-67
2022/09/18 08:23:17;;;;;;;6.53;2.93;;;9.90;99.90;;;;;;8370380;28;21901;-66
2022/09/18 08:27:18;;;;;;;10.17;2.23;;;10.10;99.90;;;;;;8367187;28;20177;-67
2022/09/18 08:31:18;;;;;;;10.27;2.63;;;10.30;99.90;;;;;;8373447;28;20193;-67
2022/09/18 08:35:19;;;;;;;8.13;1.83;;;10.30;99.90;;;;;;8362649;28;20263;-67
2022/09/18 08:39:20;;;;;;;7.93;2.23;;;10.40;99.90;;;;;;8361923;28;20195;-68
2022/09/18 08:43:38;;;;;;;6.97;1.40;;;10.40;99.90;;;;;;8365090;28;20319;-67
2022/09/18 08:47:45;;;;;;;5.83;1.60;;;10.40;99.90;;;;;;8367266;28;20237;-67
2022/09/18 08:52:12;;;;;;;6.67;2.17;;;9.90;99.90;;;;;;8368280;28;20181;-67
2022/09/18 08:56:20;;;;;;;7.83;1.93;;;9.60;99.90;;;;;;8363002;28;20185;-68
2022/09/18 09:00:28;;;;;;;5.63;2.17;;;9.50;99.90;;;;;;8364904;28;20247;-67
2022/09/18 09:04:29;;;;;;;7.30;2.13;;;9.50;99.90;;;;;;8361702;28;20225;-67
2022/09/18 09:08:49;;;;;;;5.40;1.90;;;9.60;99.90;;;;;;8363142;28;20192;-68
2022/09/18 09:13:27;;;;;;;8.47;2.00;;;9.90;99.90;;;;;;8358504;28;20481;-68
2022/09/18 09:18:12;;;;;;;4.97;2.37;;;10.20;99.90;;;;;;8369942;28;20200;-68
2022/09/18 09:22:22;;;;;;;8.73;1.77;;;10.60;99.90;;;;;;8361126;28;20186;-67
2022/09/18 09:26:24;;;;;;;7.47;1.50;;;10.90;99.90;;;;;;8366603;28;20300;-67
2022/09/18 09:30:32;;;;;;;6.57;2.03;;;11.00;99.90;;;;;;8365800;28;20377;-68
2022/09/18 09:34:43;;;;;;;9.10;2.57;;;11.00;99.90;;;;;;8361930;28;20184;-68
2022/09/18 09:39:12;;;;;;;7.07;1.63;;;10.90;99.90;;;;;;8363268;28;20466;-68
2022/09/18 09:43:41;;;;;;;9.27;2.00;;;11.00;99.90;;;;;;8363654;28;20212;-68
2022/09/18 09:52:30;;;;;;;5.70;1.70;;;11.30;99.90;;;;;;8361763;28;20216;-69
2022/09/18 09:56:37;;;;;;;5.03;1.83;;;11.50;99.90;;;;;;8368220;28;20193;-68
2022/09/18 10:00:45;;;;;;;6.83;2.07;;;11.70;99.90;;;;;;8368758;28;20188;-68
2022/09/18 10:05:18;;;;;;;13.60;2.37;;;11.90;99.90;;;;;;8362865;28;20209;-68
2022/09/18 10:09:49;;;;;;;10.53;1.73;;;12.30;99.90;;;;;;8367756;28;20192;-68
2022/09/18 10:14:09;;;;;;;6.87;1.77;;;12.40;99.90;;;;;;8345307;28;20305;-68
2022/09/18 10:18:40;;;;;;;4.80;1.50;;;12.30;99.90;;;;;;8367882;28;20198;-67
2022/09/18 10:22:41;;;;;;;6.00;1.83;;;12.50;99.90;;;;;;8372176;28;20200;-68
2022/09/18 10:26:57;;;;;;;9.30;1.77;;;12.40;31.80;;;;;;8370326;28;20275;-69
2022/09/18 10:31:09;;;;;;;5.83;1.70;;;12.10;99.90;;;;;;8376678;28;20187;-67
2022/09/18 10:35:28;;;;;;;9.83;1.73;;;12.00;1.00;;;;;;8367652;28;20217;-68
2022/09/18 10:39:35;;;;;;;7.27;1.67;;;12.10;99.90;;;;;;8371211;28;20262;-69
2022/09/18 10:43:58;;;;;;;3.23;1.40;;;11.90;99.90;;;;;;8367791;28;20217;-67
2022/09/18 10:48:12;;;;;;;6.73;1.50;;;11.40;99.90;;;;;;8365870;28;20196;-68
2022/09/18 10:52:25;;;;;;;5.23;1.70;;;11.40;1.00;;;;;;8377167;28;20205;-68
2022/09/18 10:56:27;;;;;;;6.80;1.77;;;11.70;1.00;;;;;;8369869;28;20248;-68
2022/09/18 11:00:28;;;;;;;7.27;1.83;;;12.20;99.90;;;;;;8362150;28;20280;-71
2022/09/18 11:04:31;;;;;;;9.33;2.23;;;12.30;99.90;;;;;;8364361;28;20213;-68
2022/09/18 11:08:44;;;;;;;6.63;2.13;;;12.50;99.90;;;;;;8373456;28;20276;-70
2022/09/18 11:12:56;;;;;;;5.47;1.40;;;12.50;99.90;;;;;;8366658;28;20197;-68
2022/09/18 11:17:03;;;;;;;8.00;1.37;;;12.70;40.40;;;;;;8365521;28;20287;-68
2022/09/18 11:21:09;;;;;;;5.33;1.00;;;13.10;99.90;;;;;;8364896;28;20200;-69
2022/09/18 11:25:21;;;;;;;9.27;1.60;;;13.60;1.00;;;;;;8371085;28;20213;-67
2022/09/18 11:29:38;;;;;;;6.70;0.97;;;13.50;1.00;;;;;;8365720;28;20242;-66
2022/09/18 11:33:43;;;;;;;6.30;1.17;;;13.70;1.00;;;;;;8372020;28;20186;-70
2022/09/18 11:38:00;;;;;;;2.70;0.80;;;13.50;1.00;;;;;;8368974;28;20242;-70
2022/09/18 11:42:06;;;;;;;4.87;0.97;;;13.70;99.90;;;;;;8365612;28;20197;-68
2022/09/18 11:46:28;;;;;;;3.13;0.90;;;14.20;99.90;;;;;;8368658;28;20221;-69
2022/09/18 11:50:35;;;;;;;6.93;1.33;;;14.10;99.90;;;;;;8366577;28;20177;-69
2022/09/18 11:55:02;;;;;;;5.00;0.80;;;14.30;99.90;;;;;;8366377;28;20269;-69
2022/09/18 11:59:21;;;;;;;4.50;0.90;;;14.90;99.90;;;;;;8369909;28;20284;-70
2022/09/18 12:03:33;;;;;;;3.90;0.80;;;15.40;99.90;;;;;;8364118;28;20213;-69
2022/09/18 12:07:47;;;;;;;5.67;0.70;;;15.10;99.90;;;;;;8380752;28;20192;-69
2022/09/18 12:11:57;;;;;;;4.00;0.80;;;14.90;81.30;;;;;;8370279;28;20201;-69
2022/09/18 12:16:12;;;;;;;4.90;1.03;;;14.20;99.90;;;;;;8363778;28;20197;-69
2022/09/18 12:20:24;;;;;;;5.80;0.90;;;14.20;99.90;;;;;;8367855;28;20277;-69
2022/09/18 12:24:25;;;;;;;3.67;0.97;;;14.40;99.90;;;;;;8369653;28;20210;-67
2022/09/18 12:29:00;;;;;;;2.67;0.77;;;14.60;48.50;;;;;;8368179;28;20610;-69
2022/09/18 12:33:08;;;;;;;4.30;0.83;;;14.20;90.50;;;;;;8361254;28;20205;-69
2022/09/18 12:37:17;;;;;;;6.00;1.07;;;14.20;99.90;;;;;;8364551;28;20197;-71
2022/09/18 12:41:34;;;;;;;3.27;0.83;;;14.30;99.90;;;;;;8360791;28;20185;-71
2022/09/18 12:45:43;;;;;;;4.93;0.93;;;14.50;99.90;;;;;;8363307;28;20303;-68
2022/09/18 12:50:05;;;;;;;4.50;0.90;;;14.40;99.90;;;;;;8366297;28;20220;-68
2022/09/18 12:54:40;;;;;;;2.80;0.53;;;14.80;99.90;;;;;;8365180;28;20184;-69
2022/09/18 12:59:02;;;;;;;4.27;0.90;;;15.00;40.10;;;;;;8363332;28;20188;-67
2022/09/18 13:03:15;;;;;;;5.13;0.90;;;14.80;55.40;;;;;;8360507;28;20350;-69
2022/09/18 13:07:33;;;;;;;3.93;0.90;;;15.00;95.30;;;;;;8365923;28;20186;-69
2022/09/18 13:11:46;;;;;;;4.47;0.87;;;15.20;98.60;;;;;;8359563;28;20198;-67
2022/09/18 13:16:07;;;;;;;5.53;1.00;;;15.40;81.60;;;;;;8394550;28;20701;-70
2022/09/18 13:20:31;;;;;;;3.10;0.80;;;15.90;31.40;;;;;;8374104;28;20240;-69
2022/09/18 13:24:34;;;;;;;4.17;0.77;;;15.80;80.70;;;;;;8392467;28;20220;-70
2022/09/18 13:28:42;;;;;;;4.57;1.00;;;15.70;44.00;;;;;;8386232;28;20195;-68
2022/09/18 13:32:43;;;;;;;2.53;0.60;;;16.10;10.20;;;;;;8379663;28;20200;-69
2022/09/18 13:36:45;;;;;;;2.63;0.80;;;16.20;1.00;;;;;;8395489;28;20213;-68
2022/09/18 13:40:56;;;;;;;2.60;0.60;;;16.50;1.00;;;;;;8377405;28;20193;-69
2022/09/18 13:45:25;;;;;;;2.60;0.50;;;16.70;1.00;;;;;;8380992;28;20262;-68
2022/09/18 13:49:34;;;;;;;1.80;0.43;;;16.20;1.00;;;;;;8394534;28;20185;-69
2022/09/18 13:53:35;;;;;;;1.57;0.50;;;15.70;1.00;;;;;;8368846;28;20338;-67
2022/09/18 13:57:37;;;;;;;1.47;0.40;;;15.60;1.00;;;;;;8375505;28;20185;-69
2022/09/18 14:01:41;;;;;;;2.63;0.57;;;15.50;6.10;;;;;;8364253;28;20197;-70
2022/09/18 14:05:45;;;;;;;5.57;1.00;;;15.40;36.10;;;;;;8369566;28;20285;-68
2022/09/18 14:10:19;;;;;;;4.90;0.77;;;15.10;13.60;;;;;;8368250;28;20186;-69
2022/09/18 14:14:26;;;;;;;3.10;0.63;;;14.80;71.70;;;;;;8370658;28;20201;-67
2022/09/18 14:18:30;;;;;;;3.97;0.57;;;14.80;61.70;;;;;;8370835;28;20198;-69
2022/09/18 14:22:37;;;;;;;1.43;0.50;;;14.30;98.50;;;;;;8368926;28;20281;-70
2022/09/18 14:26:38;;;;;;;3.73;0.50;;;14.40;86.80;;;;;;8369270;28;20212;-67
2022/09/18 14:30:39;;;;;;;3.40;0.33;;;14.40;58.10;;;;;;8366376;28;20178;-69
2022/09/18 14:34:42;;;;;;;2.93;0.80;;;14.20;62.90;;;;;;8366508;28;20198;-67
2022/09/18 14:38:51;;;;;;;7.10;1.27;;;14.20;34.10;;;;;;8368368;28;20214;-70
2022/09/18 14:42:52;;;;;;;2.17;0.50;;;14.10;26.60;;;;;;8371855;28;20280;-69
2022/09/18 14:47:07;;;;;;;2.20;0.60;;;14.20;46.90;;;;;;8368271;28;20190;-69
2022/09/18 14:51:43;;;;;;;2.43;0.53;;;14.20;33.10;;;;;;8370545;28;20193;-68
2022/09/18 14:55:49;;;;;;;2.67;0.53;;;13.80;51.30;;;;;;8373594;28;20262;-68
2022/09/18 14:59:56;;;;;;;4.20;0.63;;;13.60;96.80;;;;;;8373499;28;20192;-69
2022/09/18 15:04:00;;;;;;;5.20;1.30;;;13.50;99.90;;;;;;8374647;28;20214;-69
2022/09/18 15:08:18;;;;;;;3.20;0.60;;;13.20;99.90;;;;;;8368113;28;20182;-69
2022/09/18 15:12:31;;;;;;;2.03;0.70;;;12.90;99.90;;;;;;8372974;28;20207;-69
2022/09/18 15:16:32;;;;;;;2.17;0.63;;;12.70;99.90;;;;;;8373832;28;20204;-69
2022/09/18 15:20:34;;;;;;;0.97;0.40;;;12.60;99.90;;;;;;8368726;28;20205;-68
2022/09/18 15:24:35;;;;;;;3.67;0.70;;;12.50;99.90;;;;;;8373095;28;20270;-69
2022/09/18 15:28:39;;;;;;;2.20;0.57;;;12.50;99.90;;;;;;8369726;28;20182;-68
2022/09/18 15:32:51;;;;;;;0.80;0.40;;;12.40;99.90;;;;;;8366460;28;20210;-69
2022/09/18 15:37:05;;;;;;;1.37;0.47;;;12.10;1.00;;;;;;8366875;28;20304;-67
2022/09/18 15:41:31;;;;;;;1.60;0.60;;;11.50;86.70;;;;;;8361932;28;20272;-68
2022/09/18 15:45:36;;;;;;;2.70;0.50;;;11.00;93.80;;;;;;8365114;28;20281;-66
2022/09/18 15:49:37;;;;;;;1.93;0.60;;;10.70;99.90;;;;;;8363780;28;20252;-67
2022/09/18 15:54:11;;;;;;;1.03;0.60;;;10.30;1.00;;;;;;8366059;28;20181;-68
2022/09/18 15:59:03;;;;;;;2.00;1.27;;;10.10;1.00;;;;;;8369704;28;20188;-70
2022/09/18 16:03:06;;;;;;;1.50;0.70;;;10.00;1.00;;;;;;8362279;28;20308;-67
2022/09/18 16:07:28;;;;;;;1.67;0.50;;;10.00;1.00;;;;;;8382726;28;20187;-68
2022/09/18 16:11:42;;;;;;;2.90;0.50;;;10.10;99.90;;;;;;8372574;28;20300;-68
2022/09/18 16:16:07;;;;;;;0.60;0.50;;;10.30;1.00;;;;;;8354078;28;20236;-66
2022/09/18 16:20:48;;;;;;;0.57;0.30;;;10.60;99.90;;;;;;8370970;28;20210;-66
2022/09/18 16:24:49;;;;;;;1.17;0.53;;;10.70;1.00;;;;;;8361471;28;20208;-66
2022/09/18 16:29:16;;;;;;;0.60;0.40;;;10.60;99.90;;;;;;8355118;28;20197;-66
2022/09/18 16:33:23;;;;;;;1.13;0.50;;;10.40;99.90;;;;;;8363981;28;20189;-67
2022/09/18 16:37:26;;;;;;;0.73;0.50;;;10.10;99.90;;;;;;8366698;28;20180;-67
2022/09/18 16:41:29;;;;;;;1.53;0.63;;;9.80;99.90;;;;;;8367232;28;20195;-67
2022/09/18 16:45:31;;;;;;;1.13;0.60;;;9.60;84.60;;;;;;8365693;28;20207;-67
2022/09/18 16:49:35;;;;;;;3.53;0.70;;;9.40;1.00;;;;;;8366029;28;20450;-68
2022/09/18 16:53:37;;;;;;;1.53;0.90;;;9.50;99.90;;;;;;8361901;28;20192;-68
2022/09/18 16:57:41;;;;;;;0.83;0.60;;;9.50;99.90;;;;;;8361553;28;20282;-67
2022/09/18 17:01:42;;;;;;;2.13;1.00;;;9.60;99.90;;;;;;8360733;28;20274;-67
2022/09/18 17:05:46;;;;;;;1.73;1.00;;;9.60;1.00;;;;;;8366264;28;20219;-67
2022/09/18 17:09:47;;;;;;;3.43;1.20;;;9.60;1.00;;;;;;8361629;28;20253;-67
2022/09/18 17:13:49;;;;;;;3.27;1.40;;;9.40;63.80;;;;;;8366509;28;20298;-68
2022/09/18 17:17:50;;;;;;;4.77;1.07;;;9.30;99.90;;;;;;8350395;28;20197;-68
2022/09/18 17:21:52;;;;;;;1.23;0.93;;;9.20;99.90;;;;;;8363662;28;20193;-67
2022/09/18 17:26:05;;;;;;;1.60;1.00;;;9.10;99.90;;;;;;8370260;28;20222;-67
2022/09/18 17:30:07;;;;;;;2.37;1.03;;;9.10;99.90;;;;;;8379747;28;20272;-66
2022/09/18 17:34:08;;;;;;;2.97;1.00;;;9.10;99.90;;;;;;8370383;28;20550;-67
2022/09/18 17:38:09;;;;;;;1.93;1.10;;;9.10;99.90;;;;;;8376454;28;20280;-66
2022/09/18 17:42:10;;;;;;;5.40;1.00;;;9.10;99.90;;;;;;8375538;28;20193;-68
2022/09/18 17:46:12;;;;;;;3.13;2.17;;;9.30;99.90;;;;;;8375500;28;20211;-67
2022/09/18 17:50:13;;;;;;;2.13;1.30;;;9.30;99.90;;;;;;8377125;28;20185;-67
2022/09/18 17:54:16;;;;;;;2.63;0.70;;;9.20;1.00;;;;;;8372258;28;20193;-67
2022/09/18 17:58:17;;;;;;;2.50;0.83;;;8.90;99.90;;;;;;8377000;28;20225;-65
2022/09/18 18:02:18;;;;;;;0.70;0.60;;;8.70;99.90;;;;;;8376702;28;20184;-66
2022/09/18 18:06:20;;;;;;;3.00;0.70;;;8.60;99.90;;;;;;8373403;28;20284;-67
2022/09/18 18:10:21;;;;;;;0.57;0.40;;;8.50;99.90;;;;;;8371224;28;20185;-68
2022/09/18 18:14:26;;;;;;;1.77;0.60;;;8.40;99.90;;;;;;8376100;28;20206;-68
2022/09/18 18:18:27;;;;;;;1.30;0.87;;;8.30;99.90;;;;;;8371345;28;20212;-70
2022/09/18 18:22:29;;;;;;;1.00;0.60;;;8.30;99.90;;;;;;8375769;28;20276;-68
2022/09/18 18:26:33;;;;;;;1.10;0.80;;;8.40;99.90;;;;;;8372604;28;20236;-68
2022/09/18 18:30:35;;;;;;;2.23;0.70;;;8.40;99.90;;;;;;8375047;28;20264;-68
2022/09/18 18:34:36;;;;;;;1.60;0.90;;;8.30;99.90;;;;;;8384581;28;20185;-68
2022/09/18 18:38:37;;;;;;;1.43;0.70;;;8.20;99.90;;;;;;8373621;28;20178;-68
2022/09/18 18:42:38;;;;;;;1.43;0.70;;;8.10;99.90;;;;;;8368177;28;20177;-67
2022/09/18 18:46:41;;;;;;;0.90;0.80;;;8.00;99.90;;;;;;8365053;28;20209;-68
2022/09/18 18:50:43;;;;;;;1.07;0.90;;;8.00;99.90;;;;;;8368568;28;20181;-67
2022/09/18 18:54:49;;;;;;;1.10;0.90;;;8.00;99.90;;;;;;8369631;28;20185;-68
2022/09/18 18:58:59;;;;;;;2.47;1.00;;;8.00;99.90;;;;;;8370530;28;20170;-67
2022/09/18 19:03:01;;;;;;;1.20;0.73;;;7.90;99.90;;;;;;8364584;28;20186;-68
2022/09/18 19:07:01;;;;;;;3.07;1.13;;;7.80;99.90;;;;;;8363921;28;20192;-68
2022/09/18 19:11:05;;;;;;;0.90;0.73;;;7.70;99.90;;;;;;8369686;28;20192;-67
2022/09/18 19:15:06;;;;;;;2.60;0.93;;;7.70;99.90;;;;;;8365993;28;20219;-68
2022/09/18 19:19:08;;;;;;;1.57;1.07;;;7.60;99.90;;;;;;8368505;28;20221;-68
2022/09/18 19:23:15;;;;;;;2.13;0.80;;;7.50;99.90;;;;;;8370719;28;20189;-69
2022/09/18 19:27:16;;;;;;;1.83;1.10;;;7.50;99.90;;;;;;8366336;28;20272;-67
2022/09/18 19:31:18;;;;;;;2.20;0.97;;;7.50;99.90;;;;;;8368680;28;20209;-68
2022/09/18 19:35:21;;;;;;;1.40;1.10;;;7.40;99.90;;;;;;8370565;28;20209;-67
2022/09/18 19:39:23;;;;;;;1.67;0.97;;;7.40;99.90;;;;;;8373559;28;20211;-68
2022/09/18 19:43:30;;;;;;;0.90;0.90;;;7.30;99.90;;;;;;8367405;28;20313;-68
2022/09/18 19:47:36;;;;;;;1.07;0.73;;;7.30;99.90;;;;;;8365059;28;20185;-68
2022/09/18 19:51:37;;;;;;;1.27;1.00;;;7.20;99.90;;;;;;8364438;28;20196;-68
2022/09/18 19:55:39;;;;;;;1.80;0.97;;;7.20;99.90;;;;;;8365487;28;20322;-68
2022/09/18 19:59:40;;;;;;;1.37;1.00;;;7.30;99.90;;;;;;8363935;28;20201;-68
2022/09/18 20:03:42;;;;;;;1.00;0.80;;;7.30;99.90;;;;;;8361634;28;20201;-68
2022/09/18 20:07:48;;;;;;;2.60;0.87;;;7.30;99.90;;;;;;8367179;28;20563;-68
2022/09/18 20:11:49;;;;;;;1.30;1.13;;;7.40;99.90;;;;;;8362207;28;20202;-67
2022/09/18 20:16:05;;;;;;;1.70;1.00;;;7.40;99.90;;;;;;8362304;28;20580;-67
2022/09/18 20:20:07;;;;;;;1.20;1.10;;;7.40;99.90;;;;;;8366680;28;20201;-69
2022/09/18 20:24:08;;;;;;;1.53;1.20;;;7.30;99.90;;;;;;8364644;28;20208;-68
2022/09/18 20:28:09;;;;;;;1.07;0.97;;;7.30;99.90;;;;;;8367671;28;20204;-68
2022/09/18 20:32:13;;;;;;;1.53;0.80;;;7.20;99.90;;;;;;8363961;28;20180;-67
2022/09/18 20:36:15;;;;;;;1.97;1.00;;;7.10;99.90;;;;;;8366938;28;20193;-68
2022/09/18 20:40:15;;;;;;;1.47;1.33;;;7.10;99.90;;;;;;8367999;28;20192;-67
2022/09/18 20:44:17;;;;;;;1.47;1.00;;;7.10;99.90;;;;;;8361835;28;20283;-67
2022/09/18 20:48:26;;;;;;;1.93;1.00;;;7.10;99.90;;;;;;8365690;28;20182;-68
2022/09/18 20:52:28;;;;;;;1.60;0.83;;;7.00;99.90;;;;;;8365443;28;20173;-67
2022/09/18 20:56:40;;;;;;;2.77;1.10;;;7.00;99.90;;;;;;8363438;28;20174;-68
2022/09/18 21:00:42;;;;;;;2.03;1.37;;;6.90;99.90;;;;;;8365223;28;20178;-68
2022/09/18 21:04:43;;;;;;;2.13;0.97;;;6.90;99.90;;;;;;8361061;28;20208;-69
2022/09/18 21:08:46;;;;;;;1.57;1.40;;;6.90;99.90;;;;;;8360589;28;20189;-68
2022/09/18 21:12:47;;;;;;;1.37;1.13;;;6.90;99.90;;;;;;8366675;28;20287;-68
2022/09/18 21:16:48;;;;;;;3.10;1.23;;;6.80;99.90;;;;;;8362789;28;20242;-68
2022/09/18 21:21:03;;;;;;;1.13;1.03;;;6.80;99.90;;;;;;8361730;28;20216;-67
2022/09/18 21:25:05;;;;;;;3.33;1.30;;;6.80;99.90;;;;;;8361893;28;20220;-68
2022/09/18 21:29:17;;;;;;;1.93;1.27;;;6.80;99.90;;;;;;8363453;28;20192;-67
2022/09/18 21:33:18;;;;;;;1.20;1.10;;;6.80;99.90;;;;;;8370490;28;20181;-69
2022/09/18 21:37:20;;;;;;;3.10;1.13;;;6.80;99.90;;;;;;8363161;28;20192;-68
2022/09/18 21:41:23;;;;;;;2.83;1.70;;;6.80;99.90;;;;;;8359618;28;20196;-69
2022/09/18 21:45:24;;;;;;;2.00;1.80;;;6.80;99.90;;;;;;8371216;28;20236;-68